Time;durP1;ratioP1;P1;durP2;ratioP2;P2;SDS_P1;SDS_P2;PMS_P1;PMS_P2;Temp;Humidity;BMP_temperature;BMP_pressure;BME280_temperature;BME280_humidity;BME280_pressure;Samples;Min_cycle;Max_cycle;Signal;HPM_P1;HPM_P2
2021/07/24 06:07:48;;;;;;;13.88;6.42;;;;;;;17.68;76.10;94699.88;1615219;87;21520;-55
2021/07/24 06:10:17;;;;;;;18.02;6.10;;;;;;;17.80;76.00;94704.29;1621085;87;21774;-55
2021/07/24 06:12:47;;;;;;;10.70;6.40;;;;;;;17.91;75.68;94701.57;1616612;87;21936;-55
2021/07/24 06:15:15;;;;;;;14.87;6.42;;;;;;;17.97;75.28;94699.61;1594356;88;20999;-55
2021/07/24 06:17:42;;;;;;;19.23;6.75;;;;;;;17.98;74.62;94694.17;1615030;88;21027;-56
2021/07/24 06:20:10;;;;;;;18.05;6.83;;;;;;;18.09;74.60;94705.37;1616526;87;21037;-55
2021/07/24 06:22:37;;;;;;;15.38;6.75;;;;;;;18.18;74.39;94696.84;1615859;87;21018;-55
2021/07/24 06:25:05;;;;;;;22.22;7.37;;;;;;;18.25;74.10;94693.70;1619129;87;21131;-54
2021/07/24 06:27:31;;;;;;;14.30;5.87;;;;;;;18.30;74.03;94695.03;1616229;87;20979;-56
2021/07/24 06:29:59;;;;;;;18.05;7.00;;;;;;;18.34;73.93;94696.95;1614932;88;21127;-55
2021/07/24 06:32:26;;;;;;;18.92;6.00;;;;;;;18.40;73.76;94701.30;1615081;88;21007;-55
2021/07/24 06:34:52;;;;;;;14.70;5.75;;;;;;;18.49;73.66;94696.14;1619855;87;21149;-55
2021/07/24 06:37:19;;;;;;;24.02;7.55;;;;;;;18.55;73.48;94690.73;1619748;87;21171;-56
2021/07/24 06:39:46;;;;;;;21.68;8.03;;;;;;;18.57;73.28;94693.78;1612723;87;20994;-55
2021/07/24 06:42:14;;;;;;;17.48;6.47;;;;;;;18.63;73.08;94690.38;1618909;87;21105;-55
2021/07/24 06:44:41;;;;;;;18.87;8.10;;;;;;;18.69;72.63;94688.40;1621379;87;21084;-55
2021/07/24 06:47:08;;;;;;;23.40;8.58;;;;;;;18.74;72.22;94690.44;1618962;87;21190;-55
2021/07/24 06:49:35;;;;;;;17.32;7.45;;;;;;;18.79;71.88;94681.33;1610177;87;21093;-56
2021/07/24 06:52:03;;;;;;;15.83;6.90;;;;;;;18.82;72.02;94676.78;1614905;88;21039;-56
2021/07/24 06:54:29;;;;;;;14.00;6.75;;;;;;;18.83;71.95;94676.27;1608446;87;21589;-56
2021/07/24 06:56:56;;;;;;;20.90;7.50;;;;;;;18.82;72.00;94676.78;1633395;87;20994;-57
2021/07/24 06:59:23;;;;;;;35.20;8.65;;;;;;;18.84;71.82;94690.98;1610312;88;21036;-54
2021/07/24 07:01:52;;;;;;;16.77;8.20;;;;;;;18.86;71.90;94675.25;1619223;87;21267;-57
2021/07/24 07:04:19;;;;;;;15.68;7.72;;;;;;;18.88;71.60;94674.14;1626069;87;21069;-56
2021/07/24 07:06:46;;;;;;;13.45;7.45;;;;;;;18.91;71.57;94677.31;1616106;87;20993;-55
2021/07/24 07:09:13;;;;;;;19.05;7.90;;;;;;;18.96;71.71;94677.19;1621830;87;21029;-56
2021/07/24 07:11:42;;;;;;;14.18;6.62;;;;;;;19.05;71.61;94674.92;1619596;87;21264;-56
2021/07/24 07:14:10;;;;;;;19.32;7.12;;;;;;;19.15;71.07;94676.23;1618775;87;21135;-55
2021/07/24 07:16:37;;;;;;;13.83;6.45;;;;;;;19.26;70.90;94678.31;1614916;87;20987;-56
2021/07/24 07:19:06;;;;;;;10.75;6.22;;;;;;;19.35;70.73;94681.63;1617190;87;21143;-56
2021/07/24 07:21:33;;;;;;;22.82;12.13;;;;;;;19.47;69.94;94678.20;1591825;88;21381;-56
2021/07/24 07:24:01;;;;;;;15.20;8.45;;;;;;;19.64;69.59;94672.77;1618362;87;21134;-55
2021/07/24 07:26:28;;;;;;;9.48;6.55;;;;;;;19.90;69.57;94672.52;1614908;87;21148;-55
2021/07/24 07:28:58;;;;;;;11.75;5.67;;;;;;;20.21;69.65;94671.61;1605015;87;21486;-54
2021/07/24 07:31:24;;;;;;;14.95;6.03;;;;;;;20.50;68.48;94676.59;1625803;87;21022;-55
2021/07/24 07:33:51;;;;;;;11.08;6.00;;;;;;;20.75;67.82;94677.66;1615007;87;21715;-56
2021/07/24 07:36:18;;;;;;;7.83;5.35;;;;;;;20.98;66.53;94669.96;1614982;88;20984;-55
2021/07/24 07:38:45;;;;;;;8.95;5.70;;;;;;;21.16;66.08;94670.75;1606653;87;21964;-55
2021/07/24 07:41:12;;;;;;;12.63;5.67;;;;;;;21.35;65.02;94667.46;1627481;87;21006;-55
2021/07/24 07:43:39;;;;;;;6.75;4.70;;;;;;;21.50;65.08;94672.81;1631645;87;21030;-55
2021/07/24 07:46:06;;;;;;;8.18;4.95;;;;;;;21.70;63.98;94668.89;1633491;86;21104;-55
2021/07/24 07:48:35;;;;;;;8.20;5.67;;;;;;;21.85;63.47;94658.08;1616416;88;21091;-55
2021/07/24 07:51:03;;;;;;;6.95;4.95;;;;;;;21.99;63.49;94669.55;1615011;88;21117;-55
2021/07/24 07:53:31;;;;;;;8.10;5.28;;;;;;;22.11;62.67;94659.86;1619001;86;21076;-56
2021/07/24 07:55:57;;;;;;;7.40;5.33;;;;;;;22.25;62.52;94662.92;1618591;87;21014;-55
2021/07/24 07:58:24;;;;;;;13.83;6.40;;;;;;;22.44;62.18;94668.63;1615005;88;21479;-56
2021/07/24 08:00:54;;;;;;;7.25;4.70;;;;;;;22.54;61.70;94660.73;1617201;87;21595;-56
2021/07/24 08:03:24;;;;;;;9.03;5.33;;;;;;;22.60;61.24;94663.45;1615915;87;21942;-55
2021/07/24 08:05:52;;;;;;;5.12;4.47;;;;;;;22.57;60.60;94663.11;1614804;88;21080;-56
2021/07/24 08:08:19;;;;;;;10.10;5.58;;;;;;;22.53;59.39;94665.46;1616864;87;20989;-56
2021/07/24 08:10:46;;;;;;;10.13;5.58;;;;;;;22.52;59.84;94661.14;1614991;87;21089;-55
2021/07/24 08:13:15;;;;;;;12.00;5.22;;;;;;;22.56;59.07;94668.61;1616348;86;21222;-57
2021/07/24 08:15:45;;;;;;;9.93;5.15;;;;;;;22.62;58.90;94670.07;1615311;88;21859;-56
2021/07/24 08:18:11;;;;;;;11.63;5.40;;;;;;;22.68;59.59;94665.14;1620074;87;21021;-56
2021/07/24 08:20:41;;;;;;;8.50;5.22;;;;;;;22.80;58.67;94666.55;1620435;87;21033;-55
2021/07/24 08:23:10;;;;;;;6.42;4.92;;;;;;;22.87;57.30;94665.94;1621971;87;21469;-57
2021/07/24 08:25:37;;;;;;;10.65;5.72;;;;;;;22.89;56.12;94664.02;1616630;87;21452;-56
2021/07/24 08:28:05;;;;;;;16.23;5.42;;;;;;;22.93;56.37;94662.44;1616554;87;21273;-56
2021/07/24 08:30:33;;;;;;;6.12;5.00;;;;;;;23.04;56.51;94663.68;1617625;87;21025;-57
2021/07/24 08:33:00;;;;;;;8.68;5.55;;;;;;;23.14;55.69;94663.46;1633451;87;21022;-55
2021/07/24 08:35:28;;;;;;;8.20;4.95;;;;;;;23.23;55.40;94657.45;1614983;88;21043;-56
2021/07/24 08:37:56;;;;;;;9.50;5.25;;;;;;;23.40;55.05;94665.66;1616131;87;21089;-57
2021/07/24 08:40:23;;;;;;;7.12;4.85;;;;;;;23.67;55.58;94661.03;1615301;87;21140;-57
2021/07/24 08:42:50;;;;;;;8.13;4.85;;;;;;;23.96;55.26;94660.06;1615060;88;22185;-55
2021/07/24 08:45:17;;;;;;;11.78;5.62;;;;;;;24.22;54.19;94655.93;1625538;87;21119;-56
2021/07/24 08:47:44;;;;;;;8.20;5.15;;;;;;;24.43;54.12;94661.04;1662851;85;21048;-56
2021/07/24 08:50:13;;;;;;;9.63;4.70;;;;;;;24.57;53.83;94662.60;1624329;87;21092;-56
2021/07/24 08:52:40;;;;;;;7.50;5.35;;;;;;;24.73;53.74;94661.53;1624459;88;21502;-56
2021/07/24 08:55:08;;;;;;;15.35;5.85;;;;;;;24.90;51.47;94657.73;1603140;88;20977;-56
2021/07/24 08:57:41;;;;;;;10.08;5.40;;;;;;;24.98;50.13;94658.58;1615708;87;21203;-55
2021/07/24 09:00:15;;;;;;;7.05;5.42;;;;;;;25.01;49.92;94659.67;1619152;87;21603;-55
2021/07/24 09:02:45;;;;;;;10.03;5.10;;;;;;;25.06;49.21;94656.61;1615290;88;21563;-56
2021/07/24 09:05:14;;;;;;;10.00;5.55;;;;;;;25.05;49.50;94658.69;1620064;87;21156;-56
2021/07/24 09:07:43;;;;;;;10.13;4.70;;;;;;;25.04;48.62;94664.21;1615074;88;21078;-57
2021/07/24 09:10:11;;;;;;;10.03;5.03;;;;;;;24.99;47.16;94657.28;1616467;87;21586;-56
2021/07/24 09:12:43;;;;;;;9.58;6.10;;;;;;;24.92;47.34;94656.54;1617675;87;20996;-56
2021/07/24 09:15:17;;;;;;;6.62;4.92;;;;;;;24.75;47.43;94664.56;1615075;88;21546;-56
2021/07/24 09:17:44;;;;;;;8.68;4.70;;;;;;;24.61;47.89;94660.22;1625424;87;21207;-56
2021/07/24 09:20:11;;;;;;;10.40;5.12;;;;;;;24.51;49.05;94656.27;1624617;86;21002;-56
2021/07/24 09:22:40;;;;;;;15.80;5.53;;;;;;;24.52;49.12;94656.41;1624697;88;21018;-57
2021/07/24 09:25:14;;;;;;;8.68;4.92;;;;;;;24.59;48.96;94654.38;1609493;88;21036;-57
2021/07/24 09:27:45;;;;;;;11.65;5.62;;;;;;;24.71;48.63;94661.29;1624954;87;21057;-56
2021/07/24 09:30:29;;;;;;;7.60;5.40;;;;;;;24.86;48.54;94653.06;1623300;87;21018;-57
2021/07/24 09:33:13;;;;;;;10.05;4.90;;;;;;;24.99;47.47;94655.88;1614849;89;21044;-56
2021/07/24 09:35:45;;;;;;;20.92;5.72;;;;;;;25.04;48.18;94656.40;1615581;87;21019;-57
2021/07/24 09:38:33;;;;;;;16.30;5.45;;;;;;;25.01;47.60;94659.67;1615938;87;21039;-56
2021/07/24 09:41:04;;;;;;;7.62;5.40;;;;;;;24.96;48.03;94659.78;1615587;87;21103;-56
2021/07/24 09:43:41;;;;;;;8.18;5.00;;;;;;;24.94;47.41;94649.71;1616618;87;21182;-57
2021/07/24 09:46:16;;;;;;;10.40;5.15;;;;;;;24.95;47.00;94652.64;1617521;87;21038;-55
2021/07/24 09:48:51;;;;;;;10.68;5.00;;;;;;;24.97;45.79;94657.06;1619748;87;21057;-57
2021/07/24 09:51:36;;;;;;;8.08;5.28;;;;;;;24.94;46.78;94656.75;1617562;87;21101;-57
2021/07/24 09:54:04;;;;;;;8.45;5.62;;;;;;;24.86;46.48;94651.02;1616143;87;21587;-58
2021/07/24 09:56:43;;;;;;;8.55;4.97;;;;;;;24.80;47.14;94659.46;1617285;87;21179;-54
2021/07/24 09:59:24;;;;;;;9.33;4.78;;;;;;;24.79;47.29;94658.69;1618346;87;21609;-56
2021/07/24 10:01:57;;;;;;;8.43;4.97;;;;;;;24.79;47.16;94659.35;1624440;87;21537;-55
2021/07/24 10:04:30;;;;;;;7.83;5.03;;;;;;;24.76;46.59;94661.84;1610395;88;21041;-56
2021/07/24 10:07:07;;;;;;;11.93;5.40;;;;;;;24.73;46.69;94659.45;1624547;87;21462;-56
2021/07/24 10:09:40;;;;;;;11.08;5.30;;;;;;;24.78;46.25;94662.06;1615672;85;21174;-56
2021/07/24 10:12:09;;;;;;;8.85;6.33;;;;;;;24.89;47.33;94655.55;1625662;86;21209;-56
2021/07/24 10:14:36;;;;;;;8.63;5.40;;;;;;;25.08;46.64;94665.30;1611936;87;21271;-56
2021/07/24 10:17:04;;;;;;;10.88;5.08;;;;;;;25.21;45.77;94668.10;1611232;87;21543;-55
2021/07/24 10:19:33;;;;;;;7.65;5.08;;;;;;;25.26;44.82;94662.99;1630618;87;21089;-57
2021/07/24 10:22:02;;;;;;;7.72;5.10;;;;;;;25.29;45.48;94664.08;1630548;87;21889;-56
2021/07/24 10:24:29;;;;;;;9.28;7.35;;;;;;;25.41;46.04;94657.55;1637695;87;20998;-56
2021/07/24 10:27:19;;;;;;;6.08;4.92;;;;;;;25.55;45.13;94661.84;1643821;87;21176;-56
2021/07/24 10:30:01;;;;;;;11.48;5.70;;;;;;;25.61;44.35;94663.23;1625244;87;21106;-55
2021/07/24 10:32:31;;;;;;;15.98;6.22;;;;;;;25.57;44.57;94665.64;1622416;87;21015;-58
2021/07/24 10:34:59;;;;;;;6.75;4.80;;;;;;;25.54;43.81;94665.33;1633168;87;21221;-55
2021/07/24 10:37:38;;;;;;;13.22;5.25;;;;;;;25.62;43.60;94663.34;1633792;87;21089;-57
2021/07/24 10:40:28;;;;;;;8.10;5.20;;;;;;;25.65;43.72;94665.73;1612784;87;21090;-56
2021/07/24 10:42:55;;;;;;;5.33;4.78;;;;;;;25.68;44.44;94669.59;1612744;87;21176;-56
2021/07/24 10:45:48;;;;;;;9.60;4.97;;;;;;;25.62;42.02;94663.34;1627034;87;21225;-57
2021/07/24 10:48:26;;;;;;;9.30;4.97;;;;;;;25.67;42.13;94661.70;1632269;87;21661;-56
2021/07/24 10:51:00;;;;;;;4.87;4.03;;;;;;;25.80;41.40;94658.81;1618351;87;21016;-56
2021/07/24 10:54:04;;;;;;;5.92;4.70;;;;;;;25.90;43.18;94660.67;1638451;87;20998;-56
2021/07/24 10:56:42;;;;;;;6.30;4.70;;;;;;;25.94;41.34;94663.23;1606438;87;21109;-57
2021/07/24 10:59:21;;;;;;;9.75;4.85;;;;;;;26.01;41.40;94656.92;1617248;87;21458;-55
2021/07/24 11:01:59;;;;;;;11.22;5.53;;;;;;;26.08;41.84;94656.89;1612063;87;21125;-57
2021/07/24 11:04:41;;;;;;;5.37;4.42;;;;;;;26.11;41.38;94653.70;1581386;89;21091;-55
2021/07/24 11:07:26;;;;;;;6.97;4.47;;;;;;;26.05;41.53;94654.51;1603421;89;21000;-56
2021/07/24 11:10:00;;;;;;;13.58;5.10;;;;;;;25.98;41.93;94646.72;1617059;87;21493;-57
2021/07/24 11:12:36;;;;;;;6.47;4.90;;;;;;;26.05;42.01;94646.69;1616616;87;21480;-56
2021/07/24 11:15:10;;;;;;;6.95;4.60;;;;;;;26.07;40.36;94651.89;1659573;85;21226;-56
2021/07/24 11:17:38;;;;;;;6.55;4.85;;;;;;;26.07;42.39;94643.43;1656753;85;21475;-57
2021/07/24 11:20:11;;;;;;;6.70;4.75;;;;;;;26.18;45.21;94645.98;1658191;86;20962;-56
2021/07/24 11:23:03;;;;;;;10.90;5.00;;;;;;;26.30;45.74;94647.19;1657629;86;20985;-56
2021/07/24 11:25:32;;;;;;;5.35;4.47;;;;;;;26.44;45.70;94645.80;1657169;85;20974;-57
2021/07/24 11:28:00;;;;;;;5.03;4.20;;;;;;;26.50;45.30;94651.33;1658126;85;21191;-56
2021/07/24 11:30:29;;;;;;;7.00;5.05;;;;;;;26.61;45.42;94650.37;1656447;86;20958;-54
2021/07/24 11:32:57;;;;;;;6.78;4.90;;;;;;;26.77;45.08;94641.34;1656983;86;21060;-55
2021/07/24 11:35:30;;;;;;;7.80;4.78;;;;;;;26.90;43.97;94647.66;1655478;85;21586;-56
2021/07/24 11:37:57;;;;;;;6.83;4.42;;;;;;;26.95;43.05;94643.91;1655564;86;20958;-55
2021/07/24 11:40:28;;;;;;;7.42;4.80;;;;;;;27.02;43.35;94646.68;1657207;85;21518;-56
2021/07/24 11:43:01;;;;;;;5.83;4.35;;;;;;;27.38;43.20;94646.03;1656506;86;21009;-57
2021/07/24 11:45:29;;;;;;;6.05;5.05;;;;;;;27.77;42.99;94651.27;1653993;86;21090;-56
2021/07/24 11:48:15;;;;;;;6.62;4.53;;;;;;;27.96;42.08;94648.95;1658034;86;21499;-57
2021/07/24 11:50:45;;;;;;;6.03;4.45;;;;;;;28.09;41.55;94643.77;1656668;86;21589;-57
2021/07/24 11:53:12;;;;;;;7.72;4.85;;;;;;;28.06;41.30;94642.08;1657474;86;21174;-56
2021/07/24 11:55:45;;;;;;;7.33;5.12;;;;;;;28.01;41.33;94648.01;1656768;85;21110;-55
2021/07/24 11:58:17;;;;;;;18.35;5.75;;;;;;;28.06;39.45;94642.08;1658711;85;21049;-56
2021/07/24 12:00:46;;;;;;;9.95;4.35;;;;;;;28.04;39.84;94633.41;1658591;85;21606;-55
2021/07/24 12:03:22;;;;;;;8.90;5.12;;;;;;;28.17;40.90;94635.39;1656636;86;21585;-56
2021/07/24 12:06:09;;;;;;;7.97;4.90;;;;;;;28.34;41.85;94640.51;1656588;86;21161;-57
2021/07/24 12:08:38;;;;;;;7.50;5.15;;;;;;;28.50;41.40;94642.02;1656531;85;21060;-56
2021/07/24 12:11:13;;;;;;;11.97;5.10;;;;;;;28.55;39.66;94629.77;1659028;85;21136;-56
2021/07/24 12:13:40;;;;;;;7.37;5.50;;;;;;;28.77;38.56;94636.06;1659450;85;20962;-56
2021/07/24 12:16:13;;;;;;;7.22;4.67;;;;;;;29.14;38.62;94634.56;1657701;85;21530;-57
2021/07/24 12:18:53;;;;;;;9.30;5.00;;;;;;;29.49;36.63;94637.03;1654805;86;21227;-56
2021/07/24 12:21:23;;;;;;;7.05;4.62;;;;;;;29.94;36.74;94635.45;1628638;87;21554;-65
2021/07/24 12:24:01;;;;;;;6.78;5.20;;;;;;;30.55;34.91;94631.53;1625130;87;21141;-57
2021/07/24 12:26:33;;;;;;;5.80;4.40;;;;;;;31.04;34.69;94632.89;1629753;87;21438;-55
2021/07/24 12:29:03;;;;;;;5.40;4.53;;;;;;;31.26;33.70;94631.91;1627943;87;21113;-57
2021/07/24 12:31:33;;;;;;;11.43;4.97;;;;;;;31.28;33.48;94632.84;1631090;87;21071;-57
2021/07/24 12:34:02;;;;;;;9.25;4.50;;;;;;;31.23;33.91;94622.45;1624973;87;21075;-57
2021/07/24 12:36:30;;;;;;;8.85;5.08;;;;;;;31.15;32.68;94626.06;1632206;86;20985;-56
2021/07/24 12:38:58;;;;;;;13.08;5.25;;;;;;;31.13;32.84;94623.05;1631687;87;21527;-56
2021/07/24 12:41:30;;;;;;;9.55;4.95;;;;;;;31.34;32.74;94616.27;1627481;87;21030;-55
2021/07/24 12:44:08;;;;;;;8.58;4.70;;;;;;;31.61;32.79;94615.62;1632474;86;21760;-59
2021/07/24 12:46:37;;;;;;;6.47;5.05;;;;;;;32.00;32.37;94621.00;1630663;87;21075;-56
2021/07/24 12:49:05;;;;;;;7.53;5.03;;;;;;;32.58;31.27;94623.45;1653558;86;20982;-57
2021/07/24 12:51:40;;;;;;;8.28;4.25;;;;;;;32.90;30.30;94618.82;1625364;88;21035;-57
2021/07/24 12:54:16;;;;;;;12.18;4.12;;;;;;;33.20;30.79;94623.34;1629189;87;21030;-56
2021/07/24 12:56:49;;;;;;;9.25;4.55;;;;;;;33.68;29.59;94624.06;1636281;87;21835;-56
2021/07/24 12:59:15;;;;;;;7.87;4.35;;;;;;;34.00;28.88;94627.19;1625693;88;21431;-56
2021/07/24 13:01:50;;;;;;;6.12;4.25;;;;;;;33.87;28.46;94626.92;1625359;88;21024;-57
2021/07/24 13:04:17;;;;;;;8.10;4.25;;;;;;;33.59;28.34;94626.93;1625431;88;20983;-55
2021/07/24 13:06:45;;;;;;;11.30;4.70;;;;;;;33.17;28.91;94618.78;1625312;87;21027;-56
2021/07/24 13:09:13;;;;;;;8.53;5.22;;;;;;;32.87;29.41;94618.59;1636491;87;21154;-57
2021/07/24 13:11:41;;;;;;;5.58;4.42;;;;;;;32.55;30.14;94618.27;1628197;87;21134;-55
2021/07/24 13:14:08;;;;;;;22.07;5.42;;;;;;;32.41;30.37;94617.85;1636088;87;21139;-57
2021/07/24 13:16:35;;;;;;;6.15;4.67;;;;;;;32.64;31.33;94618.95;1632079;87;21462;-56
2021/07/24 13:19:04;;;;;;;8.13;4.62;;;;;;;33.11;30.25;94622.62;1625790;88;21083;-57
2021/07/24 13:21:31;;;;;;;14.73;5.30;;;;;;;33.64;29.24;94625.87;1625526;88;21160;-57
2021/07/24 13:24:00;;;;;;;10.28;5.35;;;;;;;33.94;29.15;94632.47;1627290;87;21106;-56
2021/07/24 13:29:15;;;;;;;13.80;5.50;;;;;;;33.75;28.65;94628.15;1625557;88;21089;-56
2021/07/24 13:31:44;;;;;;;7.45;5.25;;;;;;;33.41;29.12;94629.86;1632295;87;21023;-57
2021/07/24 13:34:11;;;;;;;5.62;4.67;;;;;;;33.16;29.52;94620.83;1627335;87;21173;-56
2021/07/24 13:36:40;;;;;;;7.85;4.50;;;;;;;33.22;29.20;94626.34;1625562;88;20955;-58
2021/07/24 13:39:07;;;;;;;6.95;4.80;;;;;;;33.39;29.33;94626.20;1653109;86;21175;-55
2021/07/24 13:41:35;;;;;;;11.05;4.75;;;;;;;33.33;29.58;94621.45;1624458;87;21106;-57
2021/07/24 13:44:02;;;;;;;6.37;5.30;;;;;;;33.31;29.77;94621.30;1625633;86;21546;-56
2021/07/24 13:46:29;;;;;;;8.93;4.65;;;;;;;33.09;29.63;94626.75;1625582;88;21949;-57
2021/07/24 13:48:58;;;;;;;9.68;5.20;;;;;;;32.95;30.13;94627.78;1627823;87;21435;-56
2021/07/24 13:51:27;;;;;;;8.48;5.12;;;;;;;32.73;30.99;94626.06;1634383;87;20981;-56
2021/07/24 13:53:54;;;;;;;10.58;5.05;;;;;;;32.51;31.41;94626.51;1630171;87;21627;-57
2021/07/24 13:56:21;;;;;;;6.28;5.33;;;;;;;32.23;32.07;94622.86;1630193;87;21641;-55
2021/07/24 13:58:50;;;;;;;9.68;5.33;;;;;;;32.22;32.55;94622.78;1625571;88;21045;-57
2021/07/24 14:01:17;;;;;;;6.20;4.90;;;;;;;32.59;32.58;94628.55;1631739;86;21120;-56
2021/07/24 14:03:45;;;;;;;11.75;5.85;;;;;;;33.09;31.13;94635.96;1629026;87;21059;-55
2021/07/24 14:06:13;;;;;;;12.25;5.42;;;;;;;33.28;31.07;94626.02;1631043;86;21086;-55
2021/07/24 14:08:40;;;;;;;8.18;5.90;;;;;;;33.30;31.50;94628.36;1632164;87;21484;-55
2021/07/24 14:11:17;;;;;;;9.30;5.37;;;;;;;33.45;31.35;94628.06;1627596;86;21124;-55
2021/07/24 14:13:45;;;;;;;7.60;5.20;;;;;;;33.69;30.72;94636.25;1628057;87;21014;-56
2021/07/24 14:16:16;;;;;;;7.58;5.20;;;;;;;33.77;30.49;94641.14;1629410;87;21132;-57
2021/07/24 14:18:45;;;;;;;7.92;4.83;;;;;;;33.72;29.73;94638.66;1627814;87;21595;-55
2021/07/24 14:21:21;;;;;;;8.03;5.00;;;;;;;33.65;30.17;94645.92;1630287;87;21037;-55
2021/07/24 14:23:50;;;;;;;19.80;5.55;;;;;;;33.34;30.21;94644.34;1626528;86;21991;-56
2021/07/24 14:26:17;;;;;;;9.43;5.67;;;;;;;32.68;31.30;94647.02;1626342;87;20955;-55
2021/07/24 14:28:45;;;;;;;8.48;5.50;;;;;;;32.04;32.07;94645.52;1625750;87;21456;-55
2021/07/24 14:31:12;;;;;;;12.13;5.62;;;;;;;31.50;33.36;94645.27;1636253;87;21034;-55
2021/07/24 14:33:39;;;;;;;8.68;5.67;;;;;;;30.93;33.36;94645.51;1625472;88;20990;-58
2021/07/24 14:36:08;;;;;;;13.43;5.90;;;;;;;30.40;33.56;94640.16;1625472;88;21163;-57
2021/07/24 14:38:35;;;;;;;8.50;5.05;;;;;;;30.00;34.36;94640.25;1625565;88;21507;-56
2021/07/24 14:41:05;;;;;;;7.55;5.85;;;;;;;29.67;34.77;94638.64;1629488;87;21030;-57
2021/07/24 14:43:34;;;;;;;10.03;5.70;;;;;;;29.30;35.03;94635.28;1631681;87;21109;-56
2021/07/24 14:46:01;;;;;;;11.05;5.55;;;;;;;29.09;36.04;94633.34;1629807;87;21981;-56
2021/07/24 14:48:28;;;;;;;9.45;5.55;;;;;;;29.28;35.96;94638.68;1625542;88;21438;-54
2021/07/24 14:50:55;;;;;;;6.87;5.05;;;;;;;29.74;35.00;94633.59;1627033;87;21196;-57
2021/07/24 14:53:22;;;;;;;9.48;4.80;;;;;;;29.98;34.69;94626.54;1630060;87;21055;-55
2021/07/24 14:55:51;;;;;;;6.75;4.92;;;;;;;29.79;35.09;94633.38;1636648;86;21058;-56
2021/07/24 14:58:18;;;;;;;6.50;4.87;;;;;;;29.49;35.50;94629.94;1625662;87;20974;-56
2021/07/24 15:00:44;;;;;;;10.68;5.00;;;;;;;29.09;36.03;94628.45;1629825;87;21180;-56
2021/07/24 15:03:11;;;;;;;15.05;7.22;;;;;;;28.74;36.37;94625.88;1627466;87;21102;-56
2021/07/24 15:05:39;;;;;;;14.38;6.37;;;;;;;28.62;37.10;94621.91;1628509;87;20963;-55
2021/07/24 15:08:07;;;;;;;7.55;5.60;;;;;;;28.55;37.55;94619.18;1628672;87;20984;-56
2021/07/24 15:10:34;;;;;;;6.67;5.30;;;;;;;28.70;37.23;94632.56;1627320;87;20987;-56
2021/07/24 15:13:01;;;;;;;14.60;5.47;;;;;;;28.88;36.75;94629.97;1632414;87;21165;-56
2021/07/24 15:15:28;;;;;;;14.07;5.80;;;;;;;28.99;36.83;94627.52;1625389;88;21444;-55
2021/07/24 15:17:54;;;;;;;17.42;6.15;;;;;;;28.95;37.27;94633.50;1625545;88;21513;-55
2021/07/24 15:20:21;;;;;;;12.73;6.75;;;;;;;28.67;37.42;94623.78;1626960;87;21102;-57
2021/07/24 15:22:48;;;;;;;12.33;5.80;;;;;;;28.38;38.06;94621.09;1627885;87;21024;-56
2021/07/24 15:25:15;;;;;;;24.72;7.58;;;;;;;28.10;38.76;94619.82;1629918;86;21092;-56
2021/07/24 15:27:43;;;;;;;20.20;6.50;;;;;;;27.84;38.56;94623.01;1630685;87;21046;-55
2021/07/24 15:30:12;;;;;;;11.30;5.97;;;;;;;27.63;39.64;94622.38;1628303;87;21023;-55
2021/07/24 15:32:40;;;;;;;11.50;4.95;;;;;;;27.45;40.84;94614.20;1625673;87;21431;-56
2021/07/24 15:35:08;;;;;;;8.03;5.50;;;;;;;27.24;41.46;94614.31;1627588;87;21456;-56
2021/07/24 15:37:36;;;;;;;6.87;6.00;;;;;;;26.97;41.96;94611.63;1629659;87;21143;-55
2021/07/24 15:40:05;;;;;;;8.35;6.30;;;;;;;26.83;42.86;94617.29;1625441;87;21018;-55
2021/07/24 15:42:32;;;;;;;6.92;5.92;;;;;;;26.62;43.43;94618.66;1625965;88;21111;-55
2021/07/24 15:44:59;;;;;;;7.25;5.83;;;;;;;26.45;43.73;94624.00;1632743;87;21001;-54
2021/07/24 15:47:26;;;;;;;11.18;6.22;;;;;;;26.33;44.02;94624.92;1634084;87;20991;-55
2021/07/24 15:49:53;;;;;;;9.18;6.17;;;;;;;26.28;44.93;94629.32;1627323;87;21596;-55
2021/07/24 15:52:19;;;;;;;9.58;6.83;;;;;;;26.18;45.32;94623.41;1625471;88;20967;-55
2021/07/24 15:54:48;;;;;;;8.88;6.20;;;;;;;26.02;45.14;94620.36;1625518;88;20983;-55
2021/07/24 15:57:16;;;;;;;9.70;6.28;;;;;;;25.87;45.75;94621.53;1625399;87;21007;-55
2021/07/24 15:59:43;;;;;;;8.15;5.92;;;;;;;25.71;46.24;94624.06;1629732;87;21113;-56
2021/07/24 16:02:09;;;;;;;10.28;5.53;;;;;;;25.57;46.72;94616.97;1627359;87;21158;-56
2021/07/24 16:04:39;;;;;;;8.08;5.90;;;;;;;25.42;47.03;94616.80;1631460;86;21018;-55
2021/07/24 16:07:06;;;;;;;8.63;6.75;;;;;;;25.28;47.21;94618.91;1625596;87;20983;-55
2021/07/24 16:09:36;;;;;;;8.20;6.22;;;;;;;25.18;48.16;94622.70;1631948;87;21013;-55
2021/07/24 16:12:04;;;;;;;8.15;6.58;;;;;;;25.02;48.56;94615.36;1627598;87;21034;-55
2021/07/24 16:14:36;;;;;;;22.25;10.80;;;;;;;24.89;49.57;94616.78;1631983;87;21104;-56
2021/07/24 16:17:04;;;;;;;17.07;7.20;;;;;;;24.70;50.28;94621.15;1629509;87;21527;-55
2021/07/24 16:19:31;;;;;;;19.10;7.17;;;;;;;24.53;52.16;94622.79;1627586;87;22005;-56
2021/07/24 16:21:58;;;;;;;12.63;7.10;;;;;;;24.33;52.92;94619.16;1627338;87;21011;-55
2021/07/24 16:24:25;;;;;;;9.08;6.85;;;;;;;24.18;53.68;94621.09;1633077;87;21090;-55
2021/07/24 16:26:52;;;;;;;16.17;8.13;;;;;;;24.04;54.17;94619.55;1628546;87;21155;-55
2021/07/24 16:29:19;;;;;;;13.38;10.25;;;;;;;23.94;54.87;94624.72;1633585;87;21428;-55
2021/07/24 16:31:46;;;;;;;14.53;8.28;;;;;;;23.85;55.47;94626.55;1628077;87;21030;-56
2021/07/24 16:34:13;;;;;;;17.40;6.90;;;;;;;23.78;55.99;94617.29;1625476;88;21071;-55
2021/07/24 16:36:41;;;;;;;15.70;7.12;;;;;;;23.71;56.32;94622.14;1628414;87;21063;-57
2021/07/24 16:39:08;;;;;;;18.15;7.78;;;;;;;23.64;57.02;94620.60;1633438;87;21165;-54
2021/07/24 16:41:37;;;;;;;17.48;8.40;;;;;;;23.56;57.54;94616.25;1635168;87;21474;-56
2021/07/24 16:44:09;;;;;;;16.37;9.03;;;;;;;23.47;58.25;94618.06;1633180;86;21140;-55
2021/07/24 16:46:36;;;;;;;14.47;9.05;;;;;;;23.43;59.08;94615.45;1631930;87;20990;-55
2021/07/24 16:49:03;;;;;;;13.45;8.20;;;;;;;23.32;59.76;94613.56;1630240;87;21109;-55
2021/07/24 16:51:33;;;;;;;10.30;8.68;;;;;;;23.21;60.54;94610.17;1625581;88;21186;-54
2021/07/24 16:54:00;;;;;;;12.47;8.05;;;;;;;23.08;60.36;94620.66;1634305;86;21019;-55
2021/07/24 16:56:27;;;;;;;10.50;8.63;;;;;;;22.96;60.29;94620.68;1628489;87;20994;-54
2021/07/24 16:58:56;;;;;;;11.90;7.90;;;;;;;22.86;60.69;94615.98;1638043;87;20958;-55
2021/07/24 17:01:24;;;;;;;10.95;7.92;;;;;;;22.77;61.07;94619.14;1630986;87;21069;-55
2021/07/24 17:03:53;;;;;;;16.60;9.90;;;;;;;22.69;61.41;94618.23;1631019;87;21798;-56
2021/07/24 17:06:21;;;;;;;21.42;10.30;;;;;;;22.62;61.64;94620.98;1625520;88;21007;-55
2021/07/24 17:08:50;;;;;;;28.35;14.07;;;;;;;22.56;61.83;94616.73;1637176;87;21470;-55
2021/07/24 17:11:17;;;;;;;56.60;16.37;;;;;;;22.49;62.51;94623.68;1628785;87;21006;-55
2021/07/24 17:13:44;;;;;;;24.60;13.00;;;;;;;22.43;63.06;94627.20;1625698;88;21581;-54
2021/07/24 17:16:12;;;;;;;32.85;14.85;;;;;;;22.38;63.17;94619.63;1627527;87;21161;-57
2021/07/24 17:18:40;;;;;;;18.37;11.65;;;;;;;22.33;63.71;94624.59;1629888;87;21534;-56
2021/07/24 17:21:12;;;;;;;18.42;10.45;;;;;;;22.25;63.90;94626.48;1607881;88;20991;-55
2021/07/24 17:23:39;;;;;;;14.95;10.70;;;;;;;22.21;63.87;94626.02;1625933;88;21018;-55
2021/07/24 17:26:08;;;;;;;16.85;10.48;;;;;;;22.17;63.84;94626.19;1625988;87;20978;-55
2021/07/24 17:28:39;;;;;;;14.95;10.03;;;;;;;22.10;64.21;94626.12;1625807;88;21175;-55
2021/07/24 17:31:13;;;;;;;13.80;9.95;;;;;;;22.04;65.05;94622.63;1625573;87;20970;-55
2021/07/24 17:33:41;;;;;;;19.62;10.38;;;;;;;21.94;65.52;94623.48;1627502;87;21476;-55
2021/07/24 17:36:10;;;;;;;14.50;10.82;;;;;;;21.81;65.59;94621.95;1627562;87;21106;-55
2021/07/24 17:38:37;;;;;;;16.23;10.88;;;;;;;21.71;65.81;94629.80;1625464;87;21107;-56
2021/07/24 17:41:12;;;;;;;28.38;12.23;;;;;;;21.65;65.98;94631.91;1628068;87;21752;-56
2021/07/24 17:43:39;;;;;;;38.60;18.37;;;;;;;21.61;66.25;94633.55;1627451;87;21574;-55
2021/07/24 17:46:09;;;;;;;39.67;22.85;;;;;;;21.58;66.46;94642.99;1634608;87;20974;-56
2021/07/24 17:48:37;;;;;;;26.17;16.37;;;;;;;21.55;66.76;94644.04;1634141;87;21089;-55
2021/07/24 17:51:09;;;;;;;24.35;13.93;;;;;;;21.49;66.90;94646.10;1625649;88;21015;-55